Time;durP1;ratioP1;P1;durP2;ratioP2;P2;SDS_P1;SDS_P2;PMS_P1;PMS_P2;Temp;Humidity;BMP_temperature;BMP_pressure;BME280_temperature;BME280_humidity;BME280_pressure;Samples;Min_cycle;Max_cycle;Signal;HPM_P1;HPM_P2
2023/10/28 00:00:11;;;;;;;35.40;16.90;;;10.40;99.90;;;;;;5042734;28;20025;-66
2023/10/28 00:02:37;;;;;;;27.08;14.93;;;10.40;99.90;;;;;;5036095;28;20049;-66
2023/10/28 00:05:05;;;;;;;30.15;16.05;;;10.40;99.90;;;;;;5046489;28;20029;-68
2023/10/28 00:07:31;;;;;;;34.45;18.02;;;10.40;99.90;;;;;;5047010;28;20021;-65
2023/10/28 00:09:56;;;;;;;37.63;18.10;;;10.40;99.90;;;;;;5050366;28;20044;-66
2023/10/28 00:12:22;;;;;;;32.42;15.75;;;10.40;99.90;;;;;;5050698;28;20028;-65
2023/10/28 00:14:48;;;;;;;33.17;17.60;;;10.40;99.90;;;;;;5051411;28;20112;-66
2023/10/28 00:17:13;;;;;;;32.97;17.17;;;10.40;99.90;;;;;;5049825;28;20645;-65
2023/10/28 00:19:39;;;;;;;35.47;17.05;;;10.40;99.90;;;;;;5051132;28;20552;-65
2023/10/28 00:22:04;;;;;;;42.92;19.60;;;10.40;99.90;;;;;;5051125;28;20043;-67
2023/10/28 00:24:30;;;;;;;42.30;19.33;;;10.40;99.90;;;;;;5049393;28;20091;-64
2023/10/28 00:26:56;;;;;;;43.78;21.10;;;10.40;99.90;;;;;;5050724;28;20390;-65
2023/10/28 00:29:22;;;;;;;48.22;22.95;;;10.40;99.90;;;;;;5051541;28;20021;-65
2023/10/28 00:31:50;;;;;;;41.95;21.23;;;10.40;99.90;;;;;;5050736;28;20027;-65
2023/10/28 00:34:17;;;;;;;45.70;22.80;;;10.40;99.90;;;;;;5051041;28;20017;-65
2023/10/28 00:36:42;;;;;;;42.05;20.23;;;10.30;99.90;;;;;;5050505;28;20112;-66
2023/10/28 00:39:10;;;;;;;42.22;20.27;;;10.40;99.90;;;;;;5049456;28;20136;-66
2023/10/28 00:41:37;;;;;;;43.00;20.42;;;10.30;99.90;;;;;;5049576;28;20021;-65
2023/10/28 00:44:04;;;;;;;41.30;19.35;;;10.30;99.90;;;;;;5050917;28;20017;-66
2023/10/28 00:46:30;;;;;;;41.80;18.80;;;10.30;99.90;;;;;;5051039;28;20021;-66
2023/10/28 00:48:56;;;;;;;40.72;19.88;;;10.30;99.90;;;;;;5051288;28;20100;-66
2023/10/28 00:51:21;;;;;;;47.78;22.13;;;10.30;99.90;;;;;;5051413;28;20509;-66
2023/10/28 00:53:47;;;;;;;40.55;19.17;;;10.30;99.90;;;;;;5050775;28;20367;-66
2023/10/28 00:56:13;;;;;;;54.65;22.25;;;10.30;99.90;;;;;;5049466;28;20040;-65
2023/10/28 00:58:40;;;;;;;40.53;19.73;;;10.40;99.90;;;;;;5050886;28;20032;-65
2023/10/28 01:01:08;;;;;;;51.25;23.20;;;10.40;99.90;;;;;;5049813;28;20017;-66
2023/10/28 01:03:33;;;;;;;45.47;20.50;;;10.30;99.90;;;;;;5050893;28;20382;-66
2023/10/28 01:05:59;;;;;;;39.80;18.45;;;10.40;99.90;;;;;;5050493;28;20017;-64
2023/10/28 01:08:25;;;;;;;41.05;21.92;;;10.30;99.90;;;;;;5050627;28;20036;-65
2023/10/28 01:10:51;;;;;;;38.03;18.42;;;10.30;99.90;;;;;;5050771;28;20417;-65
2023/10/28 01:13:16;;;;;;;34.92;16.05;;;10.30;99.90;;;;;;5049076;28;20029;-65
2023/10/28 01:15:42;;;;;;;42.88;18.65;;;10.30;99.90;;;;;;5050311;28;20083;-66
2023/10/28 01:18:10;;;;;;;32.42;15.73;;;10.30;99.90;;;;;;5045535;28;20021;-65
2023/10/28 01:20:35;;;;;;;30.15;15.07;;;10.30;99.90;;;;;;5040937;28;20449;-65
2023/10/28 01:23:01;;;;;;;44.40;21.25;;;10.30;99.90;;;;;;5041872;28;20267;-65
2023/10/28 01:25:27;;;;;;;36.55;17.60;;;10.40;99.90;;;;;;5040451;28;20029;-65
2023/10/28 01:27:53;;;;;;;40.53;19.10;;;10.30;99.90;;;;;;5038213;28;20285;-65
2023/10/28 01:30:18;;;;;;;43.20;21.50;;;10.30;99.90;;;;;;5040212;28;20045;-65
2023/10/28 01:32:44;;;;;;;43.45;19.25;;;10.30;99.90;;;;;;5038459;28;20044;-65
2023/10/28 01:35:10;;;;;;;37.40;18.65;;;10.40;99.90;;;;;;5038729;28;20036;-65
2023/10/28 01:37:39;;;;;;;36.33;17.20;;;10.40;99.90;;;;;;5037914;28;20238;-65
2023/10/28 01:40:13;;;;;;;37.47;17.65;;;10.30;99.90;;;;;;5034632;28;20033;-65
2023/10/28 01:42:40;;;;;;;41.80;19.30;;;10.30;99.90;;;;;;5036364;28;20266;-65
2023/10/28 01:45:07;;;;;;;37.05;18.50;;;10.30;99.90;;;;;;5044533;28;20021;-65
2023/10/28 01:47:33;;;;;;;38.38;18.35;;;10.30;99.90;;;;;;5048509;28;20502;-64
2023/10/28 01:49:59;;;;;;;41.97;19.33;;;10.40;99.90;;;;;;5049618;28;20494;-64
2023/10/28 01:52:25;;;;;;;39.58;19.63;;;10.30;99.90;;;;;;5049534;28;20021;-64
2023/10/28 01:54:51;;;;;;;42.10;18.95;;;10.30;99.90;;;;;;5049427;28;20052;-64
2023/10/28 01:57:17;;;;;;;36.75;17.58;;;10.30;99.90;;;;;;5049587;28;20027;-64
2023/10/28 01:59:44;;;;;;;46.15;21.65;;;10.30;99.90;;;;;;5048665;28;20375;-64
2023/10/28 02:02:10;;;;;;;38.08;19.05;;;10.30;99.90;;;;;;5048418;28;20474;-64
2023/10/28 02:04:36;;;;;;;38.42;18.60;;;10.30;99.90;;;;;;5049381;28;20166;-64
2023/10/28 02:07:01;;;;;;;45.17;20.15;;;10.30;99.90;;;;;;5049342;28;20021;-64
2023/10/28 02:09:33;;;;;;;37.40;18.40;;;10.30;99.90;;;;;;5049685;28;20032;-64
2023/10/28 02:12:02;;;;;;;38.78;18.35;;;10.30;99.90;;;;;;5049497;28;20320;-64
2023/10/28 02:14:28;;;;;;;40.35;17.52;;;10.30;99.90;;;;;;5049502;28;20036;-64
2023/10/28 02:16:55;;;;;;;36.47;17.55;;;10.30;99.90;;;;;;5048939;28;20064;-64
2023/10/28 02:19:21;;;;;;;37.70;18.17;;;10.30;99.90;;;;;;5047689;28;20132;-64
2023/10/28 02:21:47;;;;;;;41.42;18.25;;;10.30;99.90;;;;;;5047499;28;20029;-65
2023/10/28 02:24:13;;;;;;;34.92;17.90;;;10.30;99.90;;;;;;5048979;28;20111;-63
2023/10/28 02:26:38;;;;;;;37.10;17.40;;;10.30;99.90;;;;;;5048554;28;20025;-63
2023/10/28 02:29:04;;;;;;;35.90;17.15;;;10.30;99.90;;;;;;5048924;28;20073;-63
2023/10/28 02:31:29;;;;;;;45.30;19.08;;;10.30;99.90;;;;;;5047395;28;20025;-64
2023/10/28 02:33:55;;;;;;;40.13;18.83;;;10.40;99.90;;;;;;5048580;28;20067;-64
2023/10/28 02:36:21;;;;;;;32.50;15.90;;;10.30;99.90;;;;;;5047476;28;20024;-64
2023/10/28 02:38:46;;;;;;;36.97;17.20;;;10.30;99.90;;;;;;5048530;28;20033;-64
2023/10/28 02:41:13;;;;;;;35.28;16.10;;;10.30;99.90;;;;;;5048721;28;20094;-64
2023/10/28 02:43:39;;;;;;;38.72;17.33;;;10.30;99.90;;;;;;5048835;28;20048;-65
2023/10/28 02:46:06;;;;;;;38.33;17.65;;;10.30;99.90;;;;;;5048349;28;20044;-65
2023/10/28 02:48:31;;;;;;;29.95;14.55;;;10.30;99.90;;;;;;5054667;28;20158;-65
2023/10/28 02:51:07;;;;;;;31.70;14.63;;;10.30;99.90;;;;;;5053702;28;20025;-64
2023/10/28 02:53:33;;;;;;;34.33;15.88;;;10.30;99.90;;;;;;5049773;28;20081;-64
2023/10/28 02:56:03;;;;;;;32.15;15.80;;;10.30;99.90;;;;;;5054311;28;20028;-64
2023/10/28 02:58:29;;;;;;;42.00;19.67;;;10.30;99.90;;;;;;5050200;28;20390;-64
2023/10/28 03:00:57;;;;;;;37.08;16.80;;;10.20;99.90;;;;;;5055153;28;20032;-63
2023/10/28 03:03:22;;;;;;;37.53;17.80;;;10.20;99.90;;;;;;5054907;28;20039;-63
2023/10/28 03:05:49;;;;;;;36.83;17.70;;;10.30;99.90;;;;;;5053596;28;20028;-63
2023/10/28 03:08:15;;;;;;;36.30;17.05;;;10.30;99.90;;;;;;5055138;28;20486;-63
2023/10/28 03:10:41;;;;;;;32.38;16.23;;;10.20;99.90;;;;;;5055189;28;20268;-63
2023/10/28 03:13:07;;;;;;;39.53;18.17;;;10.20;99.90;;;;;;5055322;28;20017;-63
2023/10/28 03:15:32;;;;;;;35.80;17.45;;;10.20;99.90;;;;;;5055086;28;20605;-63
2023/10/28 03:17:58;;;;;;;35.97;16.73;;;10.20;99.90;;;;;;5054588;28;20027;-63
2023/10/28 03:20:24;;;;;;;33.47;15.93;;;10.20;99.90;;;;;;5055193;28;20025;-63
2023/10/28 03:22:50;;;;;;;32.03;15.48;;;10.30;99.90;;;;;;5054825;28;20037;-64
2023/10/28 03:25:16;;;;;;;34.65;16.92;;;10.30;99.90;;;;;;5055143;28;20086;-64
2023/10/28 03:27:42;;;;;;;34.13;16.40;;;10.30;99.90;;;;;;5053549;28;20116;-64
2023/10/28 03:30:08;;;;;;;35.03;16.50;;;10.30;99.90;;;;;;5055959;28;20035;-64
2023/10/28 03:32:34;;;;;;;36.20;16.58;;;10.30;99.90;;;;;;5055225;28;20060;-64
2023/10/28 03:35:00;;;;;;;30.15;15.30;;;10.30;99.90;;;;;;5054836;28;20064;-64
2023/10/28 03:37:25;;;;;;;36.30;16.92;;;10.30;99.90;;;;;;5054525;28;20040;-64
2023/10/28 03:39:51;;;;;;;39.72;17.70;;;10.30;99.90;;;;;;5054676;28;20060;-64
2023/10/28 03:42:16;;;;;;;34.38;16.63;;;10.20;99.90;;;;;;5053741;28;20056;-64
2023/10/28 03:44:42;;;;;;;30.10;14.60;;;10.20;99.90;;;;;;5053375;28;20025;-64
2023/10/28 03:47:07;;;;;;;31.33;16.38;;;10.20;99.90;;;;;;5054632;28;20025;-64
2023/10/28 03:49:33;;;;;;;36.88;17.15;;;10.20;99.90;;;;;;5054805;28;20264;-65
2023/10/28 03:51:59;;;;;;;37.33;17.83;;;10.20;99.90;;;;;;5053247;28;20070;-64
2023/10/28 03:54:25;;;;;;;32.80;16.30;;;10.20;99.90;;;;;;5054750;28;20028;-64
2023/10/28 03:56:50;;;;;;;33.38;16.65;;;10.20;99.90;;;;;;5054792;28;20547;-64
2023/10/28 03:59:16;;;;;;;33.05;16.50;;;10.20;99.90;;;;;;5052532;28;20033;-64
2023/10/28 04:01:42;;;;;;;36.03;17.90;;;10.20;99.90;;;;;;5051568;28;20056;-65
2023/10/28 04:04:07;;;;;;;28.77;15.23;;;10.10;99.90;;;;;;5051506;28;20056;-64
2023/10/28 04:06:33;;;;;;;29.90;14.65;;;10.10;99.90;;;;;;5051142;28;20413;-64
2023/10/28 04:08:59;;;;;;;32.90;16.00;;;10.10;99.90;;;;;;5051252;28;20122;-64
2023/10/28 04:11:25;;;;;;;34.13;16.98;;;10.00;99.90;;;;;;5051713;28;20028;-64
2023/10/28 04:13:51;;;;;;;31.88;15.00;;;10.00;99.90;;;;;;5051331;28;20052;-64
2023/10/28 04:16:17;;;;;;;28.17;14.88;;;9.90;99.90;;;;;;5051589;28;20021;-64
2023/10/28 04:18:43;;;;;;;29.30;15.30;;;9.80;99.90;;;;;;5051249;28;20497;-64
2023/10/28 04:21:08;;;;;;;29.73;14.20;;;9.80;99.90;;;;;;5051101;28;20025;-64
2023/10/28 04:23:34;;;;;;;30.95;15.48;;;9.70;99.90;;;;;;5051408;28;20096;-65
2023/10/28 04:25:59;;;;;;;27.50;14.88;;;9.70;99.90;;;;;;5051351;28;20087;-64
2023/10/28 04:28:25;;;;;;;32.60;15.82;;;9.80;99.90;;;;;;5049994;28;20045;-64
2023/10/28 04:30:59;;;;;;;37.00;18.75;;;9.70;99.90;;;;;;5051140;28;20028;-64
2023/10/28 04:33:26;;;;;;;35.33;17.00;;;9.70;99.90;;;;;;5050829;28;20044;-64
2023/10/28 04:35:52;;;;;;;37.20;17.05;;;9.80;99.90;;;;;;5049560;28;20025;-64
2023/10/28 04:38:18;;;;;;;42.67;20.63;;;9.80;99.90;;;;;;5051018;28;20040;-64
2023/10/28 04:40:44;;;;;;;43.08;19.63;;;9.90;99.90;;;;;;5051045;28;20041;-63
2023/10/28 04:43:09;;;;;;;31.08;15.85;;;9.90;99.90;;;;;;5049961;28;20367;-63
2023/10/28 04:45:35;;;;;;;46.28;20.60;;;9.90;99.90;;;;;;5050692;28;20021;-63
2023/10/28 04:48:00;;;;;;;40.85;19.08;;;9.90;99.90;;;;;;5050602;28;20021;-63
2023/10/28 04:50:26;;;;;;;40.08;18.98;;;9.90;99.90;;;;;;5050705;28;20028;-63
2023/10/28 04:52:51;;;;;;;39.38;18.42;;;9.90;99.90;;;;;;5050498;28;20025;-63
2023/10/28 04:55:17;;;;;;;38.70;18.85;;;10.00;99.90;;;;;;5050447;28;20021;-63
2023/10/28 04:57:42;;;;;;;36.72;18.00;;;10.00;99.90;;;;;;5050050;28;20502;-64
2023/10/28 05:00:09;;;;;;;41.05;19.42;;;10.00;99.90;;;;;;5048878;28;20390;-62
2023/10/28 05:02:34;;;;;;;40.22;19.45;;;9.90;99.90;;;;;;5050696;28;20451;-62
2023/10/28 05:05:03;;;;;;;41.00;18.08;;;9.90;99.90;;;;;;5049089;28;20057;-63
2023/10/28 05:07:29;;;;;;;36.08;16.65;;;9.90;99.90;;;;;;5050697;28;20021;-63
2023/10/28 05:09:55;;;;;;;36.55;17.60;;;9.90;99.90;;;;;;5050099;28;20489;-63
2023/10/28 05:12:20;;;;;;;34.05;16.65;;;9.90;99.90;;;;;;5049910;28;20021;-63
2023/10/28 05:14:46;;;;;;;38.55;17.65;;;10.00;99.90;;;;;;5050305;28;20216;-63
2023/10/28 05:17:11;;;;;;;31.10;15.80;;;9.90;99.90;;;;;;5049947;28;20032;-62
2023/10/28 05:19:37;;;;;;;30.55;15.13;;;9.90;99.90;;;;;;5050309;28;20498;-64
2023/10/28 05:22:03;;;;;;;34.65;16.92;;;9.90;99.90;;;;;;5048711;28;20048;-63
2023/10/28 05:24:29;;;;;;;36.88;17.83;;;9.80;99.90;;;;;;5049878;28;20104;-64
2023/10/28 05:26:56;;;;;;;32.70;17.63;;;9.90;99.90;;;;;;5044221;28;20375;-62
2023/10/28 05:29:21;;;;;;;37.05;16.95;;;9.90;99.90;;;;;;5038978;28;20151;-63
2023/10/28 05:31:47;;;;;;;39.63;19.75;;;9.90;99.90;;;;;;5049793;28;20107;-59
2023/10/28 05:34:12;;;;;;;34.83;17.48;;;9.90;99.90;;;;;;5049892;28;20425;-59
2023/10/28 05:36:38;;;;;;;41.30;17.83;;;9.80;99.90;;;;;;5049467;28;20029;-60
2023/10/28 05:39:04;;;;;;;37.88;17.25;;;9.80;99.90;;;;;;5046753;28;20076;-60
2023/10/28 05:41:30;;;;;;;33.10;15.63;;;9.90;99.90;;;;;;5041320;28;20039;-60
2023/10/28 05:43:55;;;;;;;35.40;17.42;;;9.90;99.90;;;;;;5049239;28;20524;-59
2023/10/28 05:46:22;;;;;;;32.25;16.25;;;9.90;99.90;;;;;;5049351;28;20029;-59
2023/10/28 05:48:50;;;;;;;41.40;18.23;;;9.90;99.90;;;;;;5048873;28;20083;-59
2023/10/28 05:51:16;;;;;;;36.05;17.08;;;9.90;99.90;;;;;;5047774;28;20056;-59
2023/10/28 05:53:41;;;;;;;34.65;16.25;;;9.90;99.90;;;;;;5047205;28;20039;-59
2023/10/28 05:56:07;;;;;;;36.47;17.13;;;10.00;99.90;;;;;;5052631;28;20024;-59
2023/10/28 05:58:32;;;;;;;38.00;16.73;;;10.00;99.90;;;;;;5062111;28;20540;-59
2023/10/28 06:01:02;;;;;;;39.45;18.45;;;10.00;99.90;;;;;;5056009;28;20375;-62
2023/10/28 06:03:28;;;;;;;36.67;17.38;;;10.00;99.90;;;;;;5058486;28;20017;-62
2023/10/28 06:05:55;;;;;;;33.28;16.33;;;10.10;99.90;;;;;;5058807;28;20033;-62
2023/10/28 06:08:20;;;;;;;40.08;17.83;;;10.10;99.90;;;;;;5054719;28;20024;-62
2023/10/28 06:10:47;;;;;;;32.42;17.25;;;10.10;99.90;;;;;;5059902;28;20362;-62
2023/10/28 06:13:13;;;;;;;37.70;17.65;;;10.10;99.90;;;;;;5054734;28;20017;-62
2023/10/28 06:15:38;;;;;;;35.03;17.42;;;10.10;99.90;;;;;;5050004;28;20363;-62
2023/10/28 06:18:04;;;;;;;34.40;16.33;;;10.10;99.90;;;;;;5048868;28;20099;-62
2023/10/28 06:20:30;;;;;;;34.58;16.80;;;10.10;99.90;;;;;;5048981;28;20029;-62
2023/10/28 06:22:56;;;;;;;33.15;16.90;;;10.10;99.90;;;;;;5048177;28;20021;-62
2023/10/28 06:25:21;;;;;;;32.95;16.00;;;10.10;99.90;;;;;;5048048;28;20029;-62
2023/10/28 06:27:47;;;;;;;29.70;15.60;;;10.10;99.90;;;;;;5048017;28;20032;-62
2023/10/28 06:30:14;;;;;;;39.72;17.85;;;10.10;99.90;;;;;;5049069;28;20033;-62
2023/10/28 06:32:40;;;;;;;33.78;16.60;;;10.10;99.90;;;;;;5047676;28;20025;-62
2023/10/28 06:35:06;;;;;;;33.70;16.67;;;10.10;99.90;;;;;;5049213;28;20017;-62
2023/10/28 06:37:32;;;;;;;31.73;15.80;;;10.10;99.90;;;;;;5047586;28;20032;-62
2023/10/28 06:40:00;;;;;;;37.15;16.13;;;10.10;99.90;;;;;;5047644;28;20063;-62
2023/10/28 06:42:26;;;;;;;33.25;16.45;;;10.10;99.90;;;;;;5049453;28;20475;-62
2023/10/28 06:44:51;;;;;;;29.42;14.93;;;10.10;99.90;;;;;;5048760;28;20061;-62
2023/10/28 06:47:17;;;;;;;31.65;15.98;;;10.20;99.90;;;;;;5048713;28;20025;-62
2023/10/28 06:49:43;;;;;;;34.55;16.20;;;10.20;99.90;;;;;;5048778;28;20056;-62
2023/10/28 06:52:09;;;;;;;32.22;17.15;;;10.10;99.90;;;;;;5047349;28;20052;-62
2023/10/28 06:54:34;;;;;;;34.80;16.92;;;10.10;99.90;;;;;;5048036;28;20017;-63
2023/10/28 06:57:00;;;;;;;34.95;16.80;;;10.10;99.90;;;;;;5046574;28;20041;-62
2023/10/28 06:59:26;;;;;;;33.00;16.15;;;10.10;99.90;;;;;;5047135;28;20438;-62
2023/10/28 07:01:52;;;;;;;37.83;16.88;;;10.10;99.90;;;;;;5048506;28;20078;-62
2023/10/28 07:04:17;;;;;;;36.85;17.85;;;10.20;99.90;;;;;;5048355;28;20485;-62
2023/10/28 07:06:43;;;;;;;32.25;16.15;;;10.20;99.90;;;;;;5047032;28;20029;-62
2023/10/28 07:09:09;;;;;;;33.83;17.77;;;10.20;99.90;;;;;;5048767;28;20151;-62
2023/10/28 07:11:34;;;;;;;34.97;16.70;;;10.20;99.90;;;;;;5048861;28;20036;-62
2023/10/28 07:14:00;;;;;;;36.70;16.40;;;10.20;99.90;;;;;;5047308;28;20021;-62
2023/10/28 07:16:27;;;;;;;32.65;15.48;;;10.30;99.90;;;;;;5047587;28;20013;-62
2023/10/28 07:18:53;;;;;;;31.60;15.88;;;10.30;99.90;;;;;;5048330;28;20025;-62
2023/10/28 07:21:18;;;;;;;33.28;16.60;;;10.40;99.90;;;;;;5047285;28;20083;-62
2023/10/28 07:23:44;;;;;;;35.42;15.85;;;10.40;99.90;;;;;;5048188;28;20041;-62
2023/10/28 07:26:12;;;;;;;32.53;15.77;;;10.40;99.90;;;;;;5048161;28;20032;-62
2023/10/28 07:28:38;;;;;;;28.35;14.05;;;10.50;99.90;;;;;;5046849;28;20028;-62
2023/10/28 07:31:05;;;;;;;29.58;14.77;;;10.60;99.90;;;;;;5046872;28;20053;-61
2023/10/28 07:33:31;;;;;;;25.73;13.48;;;10.60;99.90;;;;;;5048255;28;20108;-62
2023/10/28 07:36:01;;;;;;;25.92;13.20;;;10.70;99.90;;;;;;5050515;28;20133;-61
2023/10/28 07:38:27;;;;;;;20.60;11.90;;;10.70;99.90;;;;;;5052128;28;20504;-61
2023/10/28 07:40:53;;;;;;;26.50;13.70;;;10.70;99.90;;;;;;5051077;28;20048;-61
2023/10/28 07:43:18;;;;;;;29.00;14.77;;;10.70;99.90;;;;;;5052391;28;20444;-61
2023/10/28 07:45:45;;;;;;;29.13;15.18;;;10.80;99.90;;;;;;5051825;28;20342;-62
2023/10/28 07:48:12;;;;;;;26.00;13.27;;;10.80;99.90;;;;;;5051677;28;20140;-62
2023/10/28 07:50:38;;;;;;;26.25;13.13;;;10.80;99.90;;;;;;5051757;28;20096;-62
2023/10/28 07:53:07;;;;;;;28.60;15.00;;;10.80;99.90;;;;;;5052070;28;20108;-62
2023/10/28 07:55:33;;;;;;;28.83;14.45;;;10.80;99.90;;;;;;5051836;28;20028;-62
2023/10/28 07:57:59;;;;;;;24.00;13.50;;;10.80;99.90;;;;;;5051846;28;20025;-62
2023/10/28 08:00:26;;;;;;;28.00;14.63;;;10.80;99.90;;;;;;5051704;28;20025;-62
2023/10/28 08:02:52;;;;;;;30.00;15.60;;;10.80;99.90;;;;;;5051645;28;20180;-62
2023/10/28 08:05:18;;;;;;;29.60;14.85;;;10.80;99.90;;;;;;5051441;28;20302;-61
2023/10/28 08:07:47;;;;;;;32.92;16.30;;;10.80;99.90;;;;;;5051165;28;20044;-61
2023/10/28 08:10:14;;;;;;;25.55;14.43;;;10.80;99.90;;;;;;5050212;28;20395;-61
2023/10/28 08:12:40;;;;;;;33.00;15.25;;;10.80;99.90;;;;;;5051504;28;20028;-61
2023/10/28 08:15:09;;;;;;;27.88;14.18;;;10.80;99.90;;;;;;5051496;28;20017;-61
2023/10/28 08:17:35;;;;;;;25.80;13.55;;;10.80;99.90;;;;;;5050150;28;20025;-62
2023/10/28 08:20:02;;;;;;;28.00;13.23;;;10.80;99.90;;;;;;5051613;28;20379;-61
2023/10/28 08:22:27;;;;;;;21.35;12.48;;;10.70;99.90;;;;;;5051191;28;20504;-61
2023/10/28 08:24:53;;;;;;;21.73;11.60;;;10.70;99.90;;;;;;5051120;28;20187;-62
2023/10/28 08:27:19;;;;;;;19.05;10.52;;;10.70;99.90;;;;;;5049683;28;20017;-62
2023/10/28 08:29:45;;;;;;;16.70;9.32;;;10.70;99.90;;;;;;5043756;28;20025;-62
2023/10/28 08:32:11;;;;;;;15.40;9.07;;;10.70;99.90;;;;;;5050605;28;20021;-63
2023/10/28 08:34:38;;;;;;;16.77;10.15;;;10.70;99.90;;;;;;5053114;28;20028;-62
2023/10/28 08:37:04;;;;;;;14.48;8.38;;;10.70;99.90;;;;;;5058108;28;20021;-62
2023/10/28 08:39:31;;;;;;;15.00;8.90;;;10.70;99.90;;;;;;5054730;28;20124;-62
2023/10/28 08:42:02;;;;;;;15.52;9.52;;;10.70;99.90;;;;;;5058843;28;20485;-62
2023/10/28 08:44:28;;;;;;;16.88;9.25;;;10.70;99.90;;;;;;5053262;28;20025;-62
2023/10/28 08:46:54;;;;;;;12.40;7.68;;;10.70;99.90;;;;;;5056010;28;20397;-62
2023/10/28 08:49:21;;;;;;;14.65;8.45;;;10.70;99.90;;;;;;5055767;28;20017;-62
2023/10/28 08:51:51;;;;;;;21.35;9.25;;;10.70;99.90;;;;;;5056808;28;20021;-62
2023/10/28 08:54:18;;;;;;;16.07;8.30;;;10.70;99.90;;;;;;5055782;28;20020;-62
2023/10/28 08:56:46;;;;;;;16.35;8.20;;;10.70;99.90;;;;;;5055489;28;20024;-62
2023/10/28 08:59:12;;;;;;;15.38;7.85;;;10.70;99.90;;;;;;5056186;28;20032;-62
2023/10/28 09:01:39;;;;;;;15.98;8.25;;;10.60;99.90;;;;;;5050826;28;20030;-63
2023/10/28 09:04:05;;;;;;;17.02;7.82;;;10.70;99.90;;;;;;5058178;28;20020;-62
2023/10/28 09:06:31;;;;;;;17.45;7.72;;;10.70;99.90;;;;;;5052876;28;20497;-62
2023/10/28 09:08:58;;;;;;;19.20;8.85;;;10.80;99.90;;;;;;5057684;28;20429;-61
2023/10/28 09:11:24;;;;;;;12.55;7.78;;;10.80;99.90;;;;;;5052529;28;20104;-61
2023/10/28 09:13:49;;;;;;;16.02;8.07;;;10.80;99.90;;;;;;5054292;28;20442;-62
2023/10/28 09:16:15;;;;;;;15.55;7.75;;;10.80;99.90;;;;;;5054573;28;20020;-62
2023/10/28 09:18:42;;;;;;;19.80;11.73;;;10.90;99.90;;;;;;5053068;28;20022;-62
2023/10/28 09:21:09;;;;;;;14.85;8.55;;;10.90;99.90;;;;;;5055873;28;20081;-63
2023/10/28 09:23:39;;;;;;;11.55;6.97;;;11.00;99.90;;;;;;5052762;28;20021;-63
2023/10/28 09:26:05;;;;;;;15.07;6.95;;;11.00;99.90;;;;;;5044986;28;20029;-63
2023/10/28 09:28:31;;;;;;;11.88;6.55;;;11.10;99.90;;;;;;5050152;28;20017;-62
2023/10/28 09:30:59;;;;;;;7.85;5.28;;;11.20;99.90;;;;;;5050034;28;20021;-62
2023/10/28 09:33:25;;;;;;;9.93;5.85;;;11.20;99.90;;;;;;5050347;28;20027;-63
2023/10/28 09:35:55;;;;;;;11.85;6.38;;;11.20;99.90;;;;;;5050288;28;20024;-63
2023/10/28 09:38:21;;;;;;;9.93;5.75;;;11.20;99.90;;;;;;5050441;28;20029;-63
2023/10/28 09:40:47;;;;;;;6.82;5.05;;;11.20;99.90;;;;;;5048743;28;20130;-63
2023/10/28 09:43:16;;;;;;;8.77;5.25;;;11.20;99.90;;;;;;5050209;28;20498;-63
2023/10/28 09:45:49;;;;;;;8.30;4.82;;;11.20;99.90;;;;;;5048262;28;20402;-64
2023/10/28 09:48:17;;;;;;;8.40;4.82;;;11.20;99.90;;;;;;5048357;28;20024;-64
2023/10/28 09:50:50;;;;;;;10.82;5.95;;;11.20;99.90;;;;;;5049759;28;20505;-64
2023/10/28 09:53:35;;;;;;;14.75;5.20;;;11.10;99.90;;;;;;5048237;28;20078;-64
2023/10/28 09:56:02;;;;;;;12.32;5.32;;;11.20;99.90;;;;;;5047096;28;20021;-63
2023/10/28 09:58:34;;;;;;;10.90;5.32;;;11.20;99.90;;;;;;5041956;28;20052;-63
2023/10/28 10:01:18;;;;;;;11.23;5.70;;;11.30;99.90;;;;;;5038882;28;20078;-62
2023/10/28 10:03:57;;;;;;;9.77;5.07;;;11.40;99.90;;;;;;5040188;28;20035;-62
2023/10/28 10:06:23;;;;;;;8.20;5.05;;;11.40;99.90;;;;;;5038129;28;20029;-62
2023/10/28 10:08:50;;;;;;;9.65;4.32;;;11.40;99.90;;;;;;5042510;28;20441;-63
2023/10/28 10:11:26;;;;;;;8.05;4.55;;;11.30;99.90;;;;;;5037968;28;20530;-63
2023/10/28 10:13:52;;;;;;;6.40;4.22;;;11.40;99.90;;;;;;5040450;28;20121;-63
2023/10/28 10:16:36;;;;;;;5.72;3.85;;;11.40;99.90;;;;;;5043060;28;20119;-62
2023/10/28 10:19:10;;;;;;;10.82;5.15;;;11.50;99.90;;;;;;5048101;28;20032;-63
2023/10/28 10:21:36;;;;;;;7.22;5.00;;;11.60;99.90;;;;;;5049079;28;20028;-63
2023/10/28 10:24:06;;;;;;;9.00;3.70;;;11.70;99.90;;;;;;5049134;28;20025;-63
2023/10/28 10:26:33;;;;;;;9.50;3.95;;;11.80;99.90;;;;;;5049285;28;20056;-63
2023/10/28 10:29:03;;;;;;;8.02;4.50;;;11.90;99.90;;;;;;5049214;28;20048;-64
2023/10/28 10:31:31;;;;;;;5.40;3.63;;;11.90;99.90;;;;;;5047857;28;20074;-63
2023/10/28 10:34:09;;;;;;;7.32;3.97;;;11.90;99.90;;;;;;5048833;28;20017;-63
2023/10/28 10:36:43;;;;;;;5.57;3.25;;;12.00;99.90;;;;;;5048733;28;20047;-63
2023/10/28 10:39:15;;;;;;;7.60;3.08;;;11.90;99.90;;;;;;5048835;28;20056;-64
2023/10/28 10:41:42;;;;;;;9.05;3.20;;;11.90;99.90;;;;;;5044712;28;20105;-64
2023/10/28 10:44:27;;;;;;;9.88;4.45;;;11.90;99.90;;;;;;5038859;28;20382;-64
2023/10/28 10:46:56;;;;;;;4.32;3.17;;;12.00;99.90;;;;;;5040191;28;20029;-64
2023/10/28 10:49:21;;;;;;;5.63;3.25;;;12.00;99.90;;;;;;5037368;28;20470;-64
2023/10/28 10:51:47;;;;;;;4.05;3.20;;;12.00;99.90;;;;;;5039137;28;20021;-64
2023/10/28 10:54:16;;;;;;;6.75;3.90;;;12.10;99.90;;;;;;5047896;28;20032;-64
2023/10/28 10:56:42;;;;;;;7.15;3.40;;;12.10;99.90;;;;;;5047659;28;20118;-64
2023/10/28 10:59:07;;;;;;;5.13;2.92;;;12.20;99.90;;;;;;5045865;28;20029;-64
2023/10/28 11:01:33;;;;;;;5.95;2.55;;;12.40;99.90;;;;;;5047480;28;20567;-64
2023/10/28 11:03:58;;;;;;;3.67;2.63;;;12.60;99.90;;;;;;5047457;28;20076;-64
2023/10/28 11:06:24;;;;;;;5.57;2.50;;;12.60;99.90;;;;;;5047479;28;20082;-64
2023/10/28 11:08:50;;;;;;;9.18;3.10;;;12.70;99.90;;;;;;5049709;28;20063;-64
2023/10/28 11:11:15;;;;;;;3.90;2.10;;;12.70;99.90;;;;;;5052833;28;20036;-64
2023/10/28 11:13:43;;;;;;;6.65;2.78;;;12.80;99.90;;;;;;5051574;28;20301;-64
2023/10/28 11:16:25;;;;;;;4.40;2.78;;;12.80;99.90;;;;;;5052218;28;20060;-64
2023/10/28 11:18:51;;;;;;;5.95;2.72;;;13.10;99.90;;;;;;5043577;28;20028;-65
2023/10/28 11:21:18;;;;;;;7.03;2.95;;;13.10;99.90;;;;;;5040455;28;20382;-64
2023/10/28 11:23:45;;;;;;;5.97;2.72;;;13.20;99.90;;;;;;5039568;28;20021;-64
2023/10/28 11:26:16;;;;;;;7.28;2.60;;;13.50;99.90;;;;;;5039240;28;20053;-65
2023/10/28 11:28:43;;;;;;;9.88;2.78;;;14.10;99.90;;;;;;5038611;28;20108;-65
2023/10/28 11:31:11;;;;;;;3.03;2.20;;;15.20;99.90;;;;;;5042725;28;20014;-65
2023/10/28 11:33:36;;;;;;;3.85;2.97;;;16.10;99.90;;;;;;5041882;28;20021;-62
2023/10/28 11:36:04;;;;;;;5.65;2.90;;;16.30;99.90;;;;;;5038319;28;20029;-63
2023/10/28 11:38:33;;;;;;;3.95;2.70;;;16.50;99.90;;;;;;5040296;28;20025;-63
2023/10/28 11:41:09;;;;;;;3.70;2.50;;;16.30;99.90;;;;;;5036036;28;20041;-62
2023/10/28 11:43:35;;;;;;;5.38;2.90;;;16.00;99.90;;;;;;5041229;28;20036;-62
2023/10/28 11:46:00;;;;;;;4.63;2.88;;;16.00;99.90;;;;;;5040599;28;20036;-62
2023/10/28 11:48:27;;;;;;;5.88;3.03;;;15.80;99.90;;;;;;5042221;28;20024;-62
2023/10/28 11:50:53;;;;;;;6.60;2.83;;;15.90;99.90;;;;;;5048107;28;20371;-62
2023/10/28 11:53:23;;;;;;;5.80;2.55;;;16.30;99.90;;;;;;5051752;28;20021;-63
2023/10/28 11:55:49;;;;;;;4.00;2.97;;;15.90;99.90;;;;;;5050182;28;20048;-62
2023/10/28 11:58:14;;;;;;;6.95;2.88;;;15.50;99.90;;;;;;5051548;28;20478;-62
2023/10/28 12:00:40;;;;;;;3.33;2.53;;;15.20;99.90;;;;;;5051421;28;20032;-63
2023/10/28 12:03:05;;;;;;;2.35;2.15;;;15.10;99.90;;;;;;5051717;28;20035;-63
2023/10/28 12:05:33;;;;;;;6.03;2.78;;;15.30;99.90;;;;;;5051345;28;20033;-63
2023/10/28 12:07:58;;;;;;;4.90;2.72;;;15.40;99.90;;;;;;5051322;28;20606;-64
2023/10/28 12:10:26;;;;;;;3.25;2.30;;;15.30;99.90;;;;;;5051978;28;20029;-64
2023/10/28 12:12:51;;;;;;;2.97;2.35;;;15.20;99.90;;;;;;5051544;28;20112;-63
2023/10/28 12:15:17;;;;;;;6.72;4.22;;;15.20;99.90;;;;;;5051233;28;20104;-64
2023/10/28 12:17:44;;;;;;;6.10;3.25;;;14.90;99.90;;;;;;5049638;28;20294;-64
2023/10/28 12:20:14;;;;;;;5.57;3.50;;;14.70;99.90;;;;;;5048817;28;20132;-63
2023/10/28 12:22:43;;;;;;;3.57;2.57;;;14.40;99.90;;;;;;5050606;28;20079;-64
2023/10/28 12:25:11;;;;;;;4.28;2.70;;;14.20;99.90;;;;;;5050937;28;20053;-64
2023/10/28 12:27:36;;;;;;;3.53;2.83;;;14.00;99.90;;;;;;5050344;28;20139;-64
2023/10/28 12:30:06;;;;;;;3.13;2.05;;;13.90;99.90;;;;;;5049299;28;20037;-64